createdAt,value
2023-01-13T00:01:15.423Z,101714.90
2023-01-13T00:03:42.894Z,101709.58
2023-01-13T00:06:13.372Z,101702.88
2023-01-13T00:08:41.416Z,101710.59
2023-01-13T00:11:10.320Z,101710.41
2023-01-13T00:13:38.889Z,101704.29
2023-01-13T00:16:08.480Z,101711.58
2023-01-13T00:18:39.441Z,101703.52
2023-01-13T00:21:08.123Z,101702.20
2023-01-13T00:23:35.920Z,101705.70
2023-01-13T00:26:06.409Z,101701.27
2023-01-13T00:28:34.131Z,101704.34
2023-01-13T00:31:08.912Z,101700.71
2023-01-13T00:33:36.427Z,101702.81
2023-01-13T00:36:04.969Z,101699.51
2023-01-13T00:38:33.330Z,101702.27
2023-01-13T00:41:08.704Z,101700.83
2023-01-13T00:43:37.177Z,101699.11
2023-01-13T00:46:06.212Z,101701.12
2023-01-13T00:48:34.396Z,101698.21
2023-01-13T00:51:21.117Z,101697.95
2023-01-13T00:53:50.175Z,101692.46
2023-01-13T00:56:22.002Z,101690.85
2023-01-13T00:58:56.966Z,101689.30
2023-01-13T01:01:24.627Z,101689.03
2023-01-13T01:03:52.928Z,101679.52
2023-01-13T01:06:30.711Z,101681.17
2023-01-13T01:08:58.563Z,101683.45
2023-01-13T01:11:29.839Z,101688.44
2023-01-13T01:13:58.366Z,101684.91
2023-01-13T01:16:27.139Z,101689.88
2023-01-13T01:18:54.864Z,101691.49
2023-01-13T01:21:23.202Z,101691.41
2023-01-13T01:23:50.970Z,101689.75
2023-01-13T01:26:22.756Z,101692.29
2023-01-13T01:28:50.617Z,101693.45
2023-01-13T01:31:20.269Z,101691.09
2023-01-13T01:33:48.009Z,101693.98
2023-01-13T01:36:16.549Z,101690.58
2023-01-13T01:38:44.363Z,101691.30
2023-01-13T01:41:16.634Z,101687.11
2023-01-13T01:44:02.955Z,101686.58
2023-01-13T01:46:35.122Z,101685.50
2023-01-13T01:49:09.446Z,101686.97
2023-01-13T01:51:46.473Z,101676.67
2023-01-13T01:54:16.310Z,101678.02
2023-01-13T01:56:44.147Z,101681.22
2023-01-13T01:59:11.561Z,101681.21
2023-01-13T02:01:39.006Z,101683.14
2023-01-13T02:04:20.944Z,101683.77
2023-01-13T02:06:48.507Z,101682.10
2023-01-13T02:09:15.753Z,101686.02
2023-01-13T02:12:01.587Z,101684.07
2023-01-13T02:14:29.235Z,101692.52
2023-01-13T02:17:18.295Z,101695.27
2023-01-13T02:20:24.541Z,101694.13
2023-01-13T02:23:38.477Z,101697.03
2023-01-13T02:26:37.647Z,101687.27
2023-01-13T02:29:42.124Z,101683.66
2023-01-13T02:32:20.349Z,101685.99
2023-01-13T02:35:08.895Z,101685.79
2023-01-13T02:37:37.773Z,101691.31
2023-01-13T02:40:23.191Z,101693.54
2023-01-13T02:43:17.242Z,101690.98
2023-01-13T02:45:53.273Z,101690.77
2023-01-13T02:48:21.865Z,101694.77
2023-01-13T02:51:16.550Z,101695.06
2023-01-13T02:53:49.553Z,101689.04
2023-01-13T02:56:16.859Z,101688.94
2023-01-13T02:58:44.222Z,101692.51
2023-01-13T03:01:11.354Z,101692.71
2023-01-13T03:03:38.658Z,101695.48
2023-01-13T03:06:11.775Z,101695.49
2023-01-13T03:08:50.034Z,101695.83
2023-01-13T03:11:18.067Z,101699.40
2023-01-13T03:13:48.650Z,101696.18
2023-01-13T03:16:34.922Z,101700.05
2023-01-13T03:19:08.449Z,101694.88
2023-01-13T03:22:06.505Z,101693.05
2023-01-13T03:24:37.616Z,101691.98
2023-01-13T03:27:17.044Z,101694.57
2023-01-13T03:29:49.320Z,101696.48
2023-01-13T03:32:45.977Z,101698.20
2023-01-13T03:35:45.784Z,101697.34
2023-01-13T03:38:16.072Z,101698.29
2023-01-13T03:40:50.235Z,101696.62
2023-01-13T03:43:40.110Z,101698.49
2023-01-13T03:46:10.104Z,101692.70
2023-01-13T03:48:37.950Z,101687.93
2023-01-13T03:51:09.204Z,101690.50
2023-01-13T03:53:44.125Z,101694.92
2023-01-13T03:56:19.534Z,101697.03
2023-01-13T03:58:48.014Z,101696.41
2023-01-13T04:01:36.078Z,101699.73
2023-01-13T04:04:07.967Z,101691.98
2023-01-13T04:06:41.109Z,101691.03
2023-01-13T04:09:14.648Z,101688.17
2023-01-13T04:11:49.436Z,101689.46
2023-01-13T04:14:16.611Z,101688.95
2023-01-13T04:16:43.766Z,101688.48
2023-01-13T04:19:10.983Z,101689.64
2023-01-13T04:21:38.323Z,101690.83
2023-01-13T04:24:05.700Z,101692.27
2023-01-13T04:26:32.919Z,101692.27
2023-01-13T04:29:00.145Z,101699.70
2023-01-13T04:31:27.444Z,101693.83
2023-01-13T04:33:54.721Z,101691.84
2023-01-13T04:36:25.727Z,101694.03
2023-01-13T04:38:53.344Z,101695.55
2023-01-13T04:41:20.557Z,101695.66
2023-01-13T04:43:47.782Z,101700.52
2023-01-13T04:46:15.358Z,101695.73
2023-01-13T04:48:42.559Z,101699.04
2023-01-13T04:51:09.797Z,101693.98
2023-01-13T04:53:37.420Z,101693.73
2023-01-13T04:56:04.986Z,101693.02
2023-01-13T04:58:32.619Z,101691.14
2023-01-13T05:01:00.242Z,101694.04
2023-01-13T05:03:27.481Z,101696.66
2023-01-13T05:05:55.018Z,101694.80
2023-01-13T05:08:22.489Z,101696.63
2023-01-13T05:10:49.891Z,101692.73
2023-01-13T05:13:36.135Z,101693.41
2023-01-13T05:16:22.334Z,101697.62
2023-01-13T05:18:49.939Z,101695.67
2023-01-13T05:21:35.926Z,101695.46
2023-01-13T05:24:22.084Z,101698.82
2023-01-13T05:26:49.728Z,101698.91
2023-01-13T05:29:17.158Z,101703.70
2023-01-13T05:31:44.710Z,101704.56
2023-01-13T05:34:12.232Z,101706.00
2023-01-13T05:36:39.760Z,101705.88
2023-01-13T05:39:07.373Z,101705.88
2023-01-13T05:41:53.723Z,101715.80
2023-01-13T05:44:21.228Z,101708.89
2023-01-13T05:46:49.028Z,101703.56
2023-01-13T05:49:16.882Z,101707.54
2023-01-13T05:51:44.300Z,101712.09
2023-01-13T05:54:12.484Z,101708.59
2023-01-13T05:56:39.755Z,101707.80
2023-01-13T05:59:07.501Z,101708.63
2023-01-13T06:01:37.430Z,101702.41
2023-01-13T06:04:05.768Z,101704.33
2023-01-13T06:06:33.417Z,101708.80
2023-01-13T06:09:01.088Z,101711.27
2023-01-13T06:11:28.637Z,101712.77
2023-01-13T06:13:56.567Z,101710.83
2023-01-13T06:16:24.457Z,101709.58
2023-01-13T06:18:51.940Z,101709.19
2023-01-13T06:21:19.110Z,101714.17
2023-01-13T06:23:46.339Z,101717.95
2023-01-13T06:26:19.412Z,101719.50
2023-01-13T06:28:46.668Z,101716.04
2023-01-13T06:31:14.021Z,101716.38
2023-01-13T06:33:46.202Z,101714.50
2023-01-13T06:36:16.512Z,101717.27
2023-01-13T06:38:45.927Z,101718.80
2023-01-13T06:41:13.565Z,101719.85
2023-01-13T06:43:40.633Z,101719.98
2023-01-13T06:46:07.829Z,101721.09
2023-01-13T06:48:35.731Z,101722.59
2023-01-13T06:51:04.359Z,101724.47
2023-01-13T06:53:32.082Z,101725.17
2023-01-13T06:55:59.424Z,101726.48
2023-01-13T06:58:26.795Z,101735.41
2023-01-13T07:00:54.669Z,101729.75
2023-01-13T07:03:22.022Z,101726.57
2023-01-13T07:05:54.336Z,101728.96
2023-01-13T07:08:22.768Z,101734.31
2023-01-13T07:10:50.495Z,101734.10
2023-01-13T07:13:36.289Z,101738.19
2023-01-13T07:16:05.120Z,101742.34
2023-01-13T07:18:33.081Z,101739.63
2023-01-13T07:21:10.729Z,101745.35
2023-01-13T07:23:41.932Z,101737.79
2023-01-13T07:26:09.603Z,101744.09
2023-01-13T07:28:37.251Z,101742.04
2023-01-13T07:31:04.902Z,101739.44
2023-01-13T07:33:35.104Z,101743.50
2023-01-13T07:36:06.274Z,101744.56
2023-01-13T07:38:33.787Z,101753.61
2023-01-13T07:41:24.262Z,101740.66
2023-01-13T07:43:51.815Z,101741.30
2023-01-13T07:46:19.484Z,101742.23
2023-01-13T07:48:47.294Z,101738.07
2023-01-13T07:51:15.197Z,101742.39
2023-01-13T07:53:43.191Z,101740.59
2023-01-13T07:56:10.731Z,101740.82
2023-01-13T07:58:38.146Z,101735.34
2023-01-13T08:01:13.147Z,101734.50
2023-01-13T08:03:40.909Z,101730.90
2023-01-13T08:06:08.373Z,101733.73
2023-01-13T08:08:35.629Z,101733.56
2023-01-13T08:11:04.022Z,101734.32
2023-01-13T08:13:32.172Z,101730.89
2023-01-13T08:16:01.304Z,101727.77
2023-01-13T08:18:28.527Z,101723.16
2023-01-13T08:20:56.207Z,101722.20
2023-01-13T08:23:23.517Z,101722.40
2023-01-13T08:25:50.878Z,101719.73
2023-01-13T08:28:18.261Z,101718.30
2023-01-13T08:30:45.647Z,101718.85
2023-01-13T08:33:13.044Z,101716.46
2023-01-13T08:35:40.871Z,101714.36
2023-01-13T08:38:08.451Z,101714.60
2023-01-13T08:40:35.669Z,101712.50
2023-01-13T08:43:02.945Z,101712.04
2023-01-13T08:45:30.164Z,101710.62
2023-01-13T08:47:57.509Z,101709.63
2023-01-13T08:50:25.486Z,101709.16
2023-01-13T08:52:53.016Z,101708.50
2023-01-13T08:55:20.343Z,101699.01
2023-01-13T08:57:47.525Z,101698.89
2023-01-13T09:00:15.376Z,101696.77
2023-01-13T09:02:42.798Z,101689.51
2023-01-13T09:05:10.475Z,101689.06
2023-01-13T09:07:38.230Z,101690.44
2023-01-13T09:10:06.686Z,101687.15
2023-01-13T09:12:52.739Z,101685.31
2023-01-13T09:15:20.175Z,101679.81
2023-01-13T09:17:48.158Z,101678.77
2023-01-13T09:20:15.527Z,101676.80
2023-01-13T09:22:42.747Z,101675.67
2023-01-13T09:25:10.112Z,101676.70
2023-01-13T09:27:37.386Z,101675.02
2023-01-13T09:30:05.802Z,101673.93
2023-01-13T09:32:33.294Z,101670.20
2023-01-13T09:35:00.782Z,101667.37
2023-01-13T09:37:34.429Z,101665.52
2023-01-13T09:40:02.728Z,101668.77
2023-01-13T09:42:55.309Z,101662.59
2023-01-13T09:45:42.215Z,101657.84
2023-01-13T09:48:16.798Z,101657.36
2023-01-13T09:50:47.246Z,101653.38
2023-01-13T09:53:28.525Z,101651.70
2023-01-13T09:55:55.765Z,101651.81
2023-01-13T09:58:23.183Z,101645.42
2023-01-13T10:01:15.152Z,101645.91
2023-01-13T10:03:42.534Z,101645.98
2023-01-13T10:06:24.607Z,101641.27
2023-01-13T10:08:52.449Z,101644.00
2023-01-13T10:11:58.687Z,101641.27
2023-01-13T10:14:31.288Z,101636.81
2023-01-13T10:17:31.786Z,101637.98
2023-01-13T10:20:21.820Z,101642.67
2023-01-13T10:23:12.031Z,101637.02
2023-01-13T10:25:42.941Z,101633.41
2023-01-13T10:28:14.807Z,101632.55
2023-01-13T10:30:43.605Z,101636.67
2023-01-13T10:33:17.795Z,101635.84
2023-01-13T10:35:51.605Z,101637.17
2023-01-13T10:38:19.885Z,101637.30
2023-01-13T10:40:53.000Z,101632.12
2023-01-13T10:43:20.743Z,101633.73
2023-01-13T10:46:00.393Z,101631.88
2023-01-13T10:48:44.553Z,101628.31
2023-01-13T10:51:18.803Z,101631.97
2023-01-13T10:53:58.519Z,101632.61
2023-01-13T10:56:31.343Z,101633.44
2023-01-13T10:59:17.237Z,101627.84
2023-01-13T11:01:55.167Z,101632.70
2023-01-13T11:04:36.788Z,101625.35
2023-01-13T11:07:05.723Z,101625.63
2023-01-13T11:09:33.068Z,101627.86
2023-01-13T11:12:00.585Z,101629.04
2023-01-13T11:14:42.064Z,101626.83
2023-01-13T11:17:19.919Z,101625.32
2023-01-13T11:20:07.508Z,101624.80
2023-01-13T11:22:39.101Z,101626.71
2023-01-13T11:25:10.614Z,101621.80
2023-01-13T11:27:43.466Z,101623.30
2023-01-13T11:30:33.832Z,101624.61
2023-01-13T11:33:08.380Z,101623.61
2023-01-13T11:35:43.337Z,101623.52
2023-01-13T11:38:36.933Z,101624.21
2023-01-13T11:41:13.295Z,101624.09
2023-01-13T11:43:47.175Z,101621.20
2023-01-13T11:46:14.509Z,101623.59
2023-01-13T11:48:42.776Z,101622.11
2023-01-13T11:51:23.366Z,101624.27
2023-01-13T11:53:56.910Z,101622.92
2023-01-13T11:57:11.366Z,101625.36
2023-01-13T11:59:44.944Z,101627.51
2023-01-13T12:02:12.306Z,101625.64
2023-01-13T12:05:11.098Z,101624.25
2023-01-13T12:07:42.127Z,101620.11
2023-01-13T12:10:18.473Z,101622.71
2023-01-13T12:12:51.484Z,101619.46
2023-01-13T12:15:22.409Z,101625.61
2023-01-13T12:18:21.247Z,101624.08
2023-01-13T12:20:55.052Z,101630.48
2023-01-13T12:24:07.116Z,101633.50
2023-01-13T12:26:36.407Z,101632.29
2023-01-13T12:29:12.993Z,101636.96
2023-01-13T12:31:40.474Z,101639.70
2023-01-13T12:34:16.286Z,101645.16
2023-01-13T12:36:52.555Z,101645.46
2023-01-13T12:39:41.448Z,101647.05
2023-01-13T12:42:41.187Z,101648.11
2023-01-13T12:45:11.439Z,101647.19
2023-01-13T12:47:45.773Z,101647.88
2023-01-13T12:50:22.158Z,101647.02
2023-01-13T12:53:17.836Z,101643.88
2023-01-13T12:55:45.153Z,101644.73
2023-01-13T12:58:17.081Z,101649.23
2023-01-13T13:00:45.539Z,101647.52
2023-01-13T13:03:14.141Z,101645.69
2023-01-13T13:06:01.809Z,101647.98
2023-01-13T13:08:51.893Z,101642.93
2023-01-13T13:12:04.076Z,101642.65
2023-01-13T13:14:37.739Z,101646.51
2023-01-13T13:17:26.189Z,101641.82
2023-01-13T13:19:53.479Z,101644.28
2023-01-13T13:22:29.650Z,101645.15
2023-01-13T13:25:03.085Z,101645.08
2023-01-13T13:27:33.242Z,101644.17
2023-01-13T13:30:38.209Z,101645.67
2023-01-13T13:33:20.816Z,101649.77
2023-01-13T13:36:06.525Z,101648.13
2023-01-13T13:39:00.029Z,101644.50
2023-01-13T13:41:46.007Z,101643.84
2023-01-13T13:44:32.014Z,101647.66
2023-01-13T13:47:01.520Z,101647.05
2023-01-13T13:49:41.397Z,101648.67
2023-01-13T13:52:20.415Z,101646.98
2023-01-13T13:54:52.130Z,101649.41
2023-01-13T13:57:21.872Z,101650.86
2023-01-13T13:59:51.987Z,101650.39
2023-01-13T14:02:23.288Z,101649.71
2023-01-13T14:04:50.632Z,101654.17
2023-01-13T14:07:22.039Z,101649.83
2023-01-13T14:09:52.984Z,101652.66
2023-01-13T14:12:20.942Z,101657.36
2023-01-13T14:14:49.346Z,101660.64
2023-01-13T14:17:26.684Z,101662.42
2023-01-13T14:19:54.822Z,101665.64
2023-01-13T14:22:22.149Z,101667.00
2023-01-13T14:24:55.749Z,101664.63
2023-01-13T14:27:24.133Z,101668.36
2023-01-13T14:29:54.224Z,101669.31
2023-01-13T14:32:23.063Z,101670.05
2023-01-13T14:34:51.814Z,101672.05
2023-01-13T14:37:39.376Z,101677.40
2023-01-13T14:40:07.165Z,101677.94
2023-01-13T14:42:35.891Z,101677.41
2023-01-13T14:45:03.647Z,101671.08
2023-01-13T14:47:34.142Z,101669.75
2023-01-13T14:50:23.015Z,101668.62
2023-01-13T14:52:54.851Z,101670.17
2023-01-13T14:55:32.891Z,101668.37
2023-01-13T14:58:22.314Z,101668.29
2023-01-13T15:00:50.860Z,101672.10
2023-01-13T15:03:19.601Z,101677.51
2023-01-13T15:05:50.745Z,101679.22
2023-01-13T15:08:34.610Z,101675.80
2023-01-13T15:11:06.660Z,101675.05
2023-01-13T15:13:49.264Z,101676.23
2023-01-13T15:16:25.764Z,101674.55
2023-01-13T15:18:54.146Z,101675.23
2023-01-13T15:21:21.629Z,101670.88
2023-01-13T15:23:49.283Z,101677.16
2023-01-13T15:26:26.803Z,101674.99
2023-01-13T15:28:55.816Z,101671.16
2023-01-13T15:31:23.650Z,101677.23
2023-01-13T15:33:51.236Z,101675.66
2023-01-13T15:36:29.739Z,101681.70
2023-01-13T15:38:57.373Z,101681.34
2023-01-13T15:41:43.403Z,101680.16
2023-01-13T15:44:30.382Z,101678.66
2023-01-13T15:46:57.958Z,101680.45
2023-01-13T15:49:30.176Z,101680.10
2023-01-13T15:51:57.363Z,101680.98
2023-01-13T15:54:25.232Z,101678.98
2023-01-13T15:56:52.591Z,101680.41
2023-01-13T15:59:22.627Z,101681.47
2023-01-13T16:01:50.017Z,101682.35
2023-01-13T16:04:17.356Z,101685.83
2023-01-13T16:06:44.703Z,101679.98
2023-01-13T16:09:13.155Z,101677.20
2023-01-13T16:11:40.380Z,101677.05
2023-01-13T16:14:07.549Z,101679.95
2023-01-13T16:16:35.144Z,101678.82
2023-01-13T16:19:02.468Z,101680.48
2023-01-13T16:21:29.688Z,101684.36
2023-01-13T16:23:56.887Z,101689.23
2023-01-13T16:26:29.332Z,101686.36
2023-01-13T16:28:57.740Z,101685.40
2023-01-13T16:31:25.103Z,101680.62
2023-01-13T16:33:52.514Z,101686.01
2023-01-13T16:36:20.486Z,101689.01
2023-01-13T16:38:48.358Z,101687.78
2023-01-13T16:41:15.588Z,101690.17
2023-01-13T16:43:42.950Z,101685.27
2023-01-13T16:46:21.778Z,101683.61
2023-01-13T16:48:49.132Z,101681.44
2023-01-13T16:51:16.434Z,101675.20
2023-01-13T16:53:43.794Z,101671.67
2023-01-13T16:56:20.926Z,101671.61
2023-01-13T16:58:48.782Z,101677.58
2023-01-13T17:01:27.194Z,101672.23
2023-01-13T17:03:54.818Z,101669.67
2023-01-13T17:06:28.662Z,101668.43
2023-01-13T17:09:00.935Z,101668.02
2023-01-13T17:11:28.398Z,101667.69
2023-01-13T17:13:55.682Z,101665.65
2023-01-13T17:16:24.486Z,101665.35
2023-01-13T17:18:52.914Z,101665.27
2023-01-13T17:21:20.122Z,101665.84
2023-01-13T17:23:47.493Z,101667.67
2023-01-13T17:26:42.342Z,101666.19
2023-01-13T17:29:28.037Z,101668.30
2023-01-13T17:31:55.393Z,101667.52
2023-01-13T17:34:22.727Z,101667.00
2023-01-13T17:36:50.140Z,101664.25
2023-01-13T17:39:19.210Z,101667.73
2023-01-13T17:41:46.643Z,101665.66
2023-01-13T17:44:15.338Z,101661.69
2023-01-13T17:46:43.360Z,101662.02
2023-01-13T17:49:14.849Z,101661.38
2023-01-13T17:51:42.321Z,101661.31
2023-01-13T17:54:12.549Z,101662.73
2023-01-13T17:56:40.885Z,101663.84
2023-01-13T17:59:10.358Z,101664.13
2023-01-13T18:01:38.809Z,101665.42
2023-01-13T18:04:07.157Z,101666.66
2023-01-13T18:06:34.953Z,101664.48
2023-01-13T18:09:03.023Z,101665.85
2023-01-13T18:11:30.528Z,101666.97
2023-01-13T18:13:58.020Z,101664.63
2023-01-13T18:16:25.799Z,101665.63
2023-01-13T18:19:35.867Z,101668.38
2023-01-13T18:22:21.980Z,101665.57
2023-01-13T18:25:07.703Z,101662.50
2023-01-13T18:27:38.336Z,101662.80
2023-01-13T18:30:07.009Z,101661.04
2023-01-13T18:32:35.115Z,101659.79
2023-01-13T18:35:07.278Z,101659.98
2023-01-13T18:37:38.971Z,101655.71
2023-01-13T18:40:07.047Z,101651.20
2023-01-13T18:42:54.924Z,101645.00
2023-01-13T18:45:29.325Z,101648.34
2023-01-13T18:47:58.432Z,101648.88
2023-01-13T18:50:25.685Z,101644.23
2023-01-13T18:52:53.200Z,101647.98
2023-01-13T18:55:20.779Z,101649.76
2023-01-13T18:57:48.115Z,101651.23
2023-01-13T19:00:17.475Z,101654.45
2023-01-13T19:02:45.066Z,101656.93
2023-01-13T19:05:12.472Z,101653.50
2023-01-13T19:07:39.936Z,101657.95
2023-01-13T19:10:09.916Z,101654.75
2023-01-13T19:12:37.369Z,101654.17
2023-01-13T19:15:05.070Z,101651.62
2023-01-13T19:17:33.915Z,101658.73
2023-01-13T19:20:01.376Z,101664.65
2023-01-13T19:22:33.720Z,101663.97
2023-01-13T19:25:01.979Z,101662.47
2023-01-13T19:27:29.256Z,101663.91
2023-01-13T19:30:04.036Z,101665.49
2023-01-13T19:32:32.719Z,101661.29
2023-01-13T19:35:00.050Z,101666.66
2023-01-13T19:37:30.662Z,101664.50
2023-01-13T19:40:01.033Z,101663.35
2023-01-13T19:42:46.851Z,101667.98
2023-01-13T19:45:27.827Z,101660.98
2023-01-13T19:47:56.173Z,101660.66
2023-01-13T19:50:24.212Z,101659.45
2023-01-13T19:52:51.756Z,101664.92
2023-01-13T19:55:20.056Z,101659.73
2023-01-13T19:57:47.590Z,101660.95
2023-01-13T20:00:20.680Z,101663.29
2023-01-13T20:02:49.801Z,101669.87
2023-01-13T20:05:26.223Z,101663.42
2023-01-13T20:07:54.159Z,101658.05
2023-01-13T20:10:22.268Z,101651.25
2023-01-13T20:12:49.726Z,101651.63
2023-01-13T20:15:17.071Z,101647.94
2023-01-13T20:17:44.485Z,101648.06
2023-01-13T20:20:12.264Z,101651.56
2023-01-13T20:22:39.960Z,101643.41
2023-01-13T20:25:08.300Z,101643.17
2023-01-13T20:27:35.864Z,101643.23
2023-01-13T20:30:05.571Z,101639.31
2023-01-13T20:32:32.912Z,101640.52
2023-01-13T20:35:00.291Z,101637.17
2023-01-13T20:37:27.807Z,101636.45
2023-01-13T20:39:57.737Z,101635.90
2023-01-13T20:42:32.144Z,101636.85
2023-01-13T20:45:00.010Z,101631.89
2023-01-13T20:47:28.244Z,101629.60
2023-01-13T20:49:55.965Z,101629.04
2023-01-13T20:52:23.373Z,101632.40
2023-01-13T20:54:50.721Z,101629.13
2023-01-13T20:57:18.122Z,101633.39
2023-01-13T20:59:45.542Z,101630.60
2023-01-13T21:02:14.677Z,101628.41
2023-01-13T21:04:41.913Z,101624.25
2023-01-13T21:07:09.309Z,101625.13
2023-01-13T21:09:36.951Z,101623.85
2023-01-13T21:12:23.838Z,101623.10
2023-01-13T21:15:09.768Z,101618.30
2023-01-13T21:17:55.706Z,101617.38
2023-01-13T21:20:23.048Z,101616.22
2023-01-13T21:22:50.426Z,101618.67
2023-01-13T21:25:18.426Z,101617.10
2023-01-13T21:27:46.191Z,101617.62
2023-01-13T21:30:15.171Z,101619.96
2023-01-13T21:32:43.350Z,101621.70
2023-01-13T21:35:10.925Z,101624.58
2023-01-13T21:37:38.819Z,101627.94
2023-01-13T21:40:07.109Z,101626.59
2023-01-13T21:42:53.047Z,101617.66
2023-01-13T21:45:38.929Z,101622.13
2023-01-13T21:48:07.497Z,101619.45
2023-01-13T21:50:34.854Z,101618.16
2023-01-13T21:53:02.071Z,101615.42
2023-01-13T21:55:29.663Z,101621.05
2023-01-13T21:58:11.828Z,101616.33
2023-01-13T22:00:40.243Z,101619.40
2023-01-13T22:03:08.663Z,101617.91
2023-01-13T22:05:36.045Z,101618.08
2023-01-13T22:08:03.783Z,101615.11
2023-01-13T22:10:31.800Z,101613.23
2023-01-13T22:13:21.274Z,101615.32
2023-01-13T22:15:48.730Z,101612.60
2023-01-13T22:18:18.443Z,101614.84
2023-01-13T22:20:46.083Z,101612.16
2023-01-13T22:23:13.870Z,101616.12
2023-01-13T22:25:41.180Z,101613.93
2023-01-13T22:28:09.542Z,101615.88
2023-01-13T22:30:36.928Z,101611.73
2023-01-13T22:33:04.296Z,101616.19
2023-01-13T22:35:31.622Z,101610.80
2023-01-13T22:37:58.901Z,101608.15
2023-01-13T22:40:26.261Z,101608.64
2023-01-13T22:42:53.548Z,101605.45
2023-01-13T22:45:20.939Z,101603.70
2023-01-13T22:47:49.846Z,101604.40
2023-01-13T22:50:20.972Z,101605.54
2023-01-13T22:52:48.379Z,101599.52
2023-01-13T22:55:15.947Z,101601.73
2023-01-13T22:57:48.163Z,101606.02
2023-01-13T23:00:19.322Z,101606.00
2023-01-13T23:02:47.018Z,101603.73
2023-01-13T23:05:14.419Z,101603.16
2023-01-13T23:07:42.105Z,101602.21
2023-01-13T23:10:10.112Z,101604.22
2023-01-13T23:12:37.389Z,101602.04
2023-01-13T23:15:05.802Z,101607.51
2023-01-13T23:17:33.248Z,101605.77
2023-01-13T23:20:00.500Z,101602.18
2023-01-13T23:22:28.009Z,101607.86
2023-01-13T23:24:55.377Z,101610.94
2023-01-13T23:27:22.669Z,101604.56
2023-01-13T23:29:50.034Z,101608.16
2023-01-13T23:32:17.234Z,101607.52
2023-01-13T23:34:44.430Z,101614.71
2023-01-13T23:37:11.882Z,101614.02
2023-01-13T23:39:39.100Z,101614.86
2023-01-13T23:42:06.488Z,101608.65
2023-01-13T23:44:33.724Z,101614.95
2023-01-13T23:47:01.033Z,101615.04
2023-01-13T23:49:28.528Z,101614.98
2023-01-13T23:51:55.757Z,101618.68
2023-01-13T23:54:23.088Z,101619.52
2023-01-13T23:56:50.518Z,101615.10
2023-01-13T23:59:17.682Z,101613.19
